sensor_id;sensor_type;location;lat;lon;timestamp;P1;P4;P2;P0;N10;N4;N25;N1;N05;TS
82002;SPS30;71522;50.870;3.524;2023-11-19T00:00:42;7.28;6.58;5.16;3.28;26.25;26.17;25.82;24.12;18.16;0.78
82002;SPS30;71522;50.870;3.524;2023-11-19T00:03:08;7.35;6.65;5.20;3.30;26.42;26.34;25.99;24.26;18.25;0.79
82002;SPS30;71522;50.870;3.524;2023-11-19T00:05:34;7.26;6.56;5.10;3.20;25.63;25.55;25.20;23.47;17.56;0.79
82002;SPS30;71522;50.870;3.524;2023-11-19T00:07:59;8.39;7.52;5.74;3.43;27.52;27.42;26.99;24.88;18.16;0.82
82002;SPS30;71522;50.870;3.524;2023-11-19T00:10:25;8.67;7.77;5.91;3.51;28.14;28.04;27.59;25.39;18.46;0.83
82002;SPS30;71522;50.870;3.524;2023-11-19T00:12:51;9.18;8.23;6.27;3.74;29.98;29.87;29.40;27.08;19.73;0.84
82002;SPS30;71522;50.870;3.524;2023-11-19T00:15:17;8.51;7.63;5.83;3.50;28.05;27.95;27.52;25.38;18.56;0.83
82002;SPS30;71522;50.870;3.524;2023-11-19T00:17:47;9.13;8.16;6.17;3.60;28.85;28.74;28.27;25.90;18.64;0.82
82002;SPS30;71522;50.870;3.524;2023-11-19T00:20:14;8.67;7.73;5.80;3.32;26.62;26.51;26.05;23.76;16.91;0.85
82002;SPS30;71522;50.870;3.524;2023-11-19T00:22:41;10.53;9.33;6.86;3.72;29.86;29.72;29.13;26.21;18.02;0.89
82002;SPS30;71522;50.870;3.524;2023-11-19T00:25:07;9.71;8.63;6.41;3.58;28.68;28.56;28.03;25.40;17.79;0.87
82002;SPS30;71522;50.870;3.524;2023-11-19T00:27:33;9.43;8.42;6.34;3.66;29.32;29.21;28.71;26.24;18.76;0.86
82002;SPS30;71522;50.870;3.524;2023-11-19T00:29:59;9.46;8.44;6.36;3.67;29.44;29.32;28.82;26.35;18.86;0.86
82002;SPS30;71522;50.870;3.524;2023-11-19T00:32:25;9.52;8.47;6.33;3.58;28.74;28.62;28.11;25.57;18.08;0.87
82002;SPS30;71522;50.870;3.524;2023-11-19T00:34:51;9.43;8.45;6.43;3.82;30.59;30.47;29.99;27.59;20.05;0.83
82002;SPS30;71522;50.870;3.524;2023-11-19T00:37:17;9.53;8.54;6.52;3.90;31.28;31.17;30.68;28.28;20.65;0.82
82002;SPS30;71522;50.870;3.524;2023-11-19T00:39:43;10.17;9.06;6.80;3.88;31.15;31.03;30.49;27.80;19.77;0.88
82002;SPS30;71522;50.870;3.524;2023-11-19T00:42:09;9.85;8.74;6.47;3.56;28.55;28.42;27.87;25.18;17.48;0.90
82002;SPS30;71522;50.870;3.524;2023-11-19T00:44:39;10.72;9.51;7.03;3.85;30.91;30.77;30.18;27.24;18.87;0.90
82002;SPS30;71522;50.870;3.524;2023-11-19T00:47:05;10.97;9.71;7.11;3.81;30.61;30.46;29.84;26.77;18.26;0.91
82002;SPS30;71522;50.870;3.524;2023-11-19T00:49:30;11.59;10.22;7.40;3.84;30.80;30.64;29.97;26.64;17.73;0.94
82002;SPS30;71522;50.870;3.524;2023-11-19T00:51:58;11.42;10.08;7.31;3.80;30.53;30.38;29.72;26.45;17.66;0.95
82002;SPS30;71522;50.870;3.524;2023-11-19T00:54:25;11.58;10.19;7.33;3.73;29.96;29.80;29.12;25.75;16.90;0.97
82002;SPS30;71522;50.870;3.524;2023-11-19T00:56:52;10.11;8.93;6.51;3.43;27.56;27.42;26.85;23.98;16.17;0.92
82002;SPS30;71522;50.870;3.524;2023-11-19T00:59:18;11.14;9.86;7.23;3.88;31.10;30.95;30.32;27.21;18.57;0.89
82002;SPS30;71522;50.870;3.524;2023-11-19T01:01:44;9.40;8.40;6.36;3.72;29.80;29.68;29.20;26.77;19.29;0.82
82002;SPS30;71522;50.870;3.524;2023-11-19T01:04:09;8.31;7.46;5.72;3.45;27.66;27.56;27.14;25.07;18.39;0.82
82002;SPS30;71522;50.870;3.524;2023-11-19T01:06:35;8.62;7.70;5.83;3.41;27.30;27.20;26.75;24.52;17.66;0.84
82002;SPS30;71522;50.870;3.524;2023-11-19T01:09:01;10.43;9.27;6.89;3.85;30.85;30.71;30.14;27.32;19.14;0.89
82002;SPS30;71522;50.870;3.524;2023-11-19T01:11:27;10.70;9.47;6.94;3.73;29.92;29.77;29.17;26.19;17.88;0.91
82002;SPS30;71522;50.870;3.524;2023-11-19T01:13:53;11.30;10.03;7.43;4.11;33.00;32.85;32.23;29.16;20.32;0.87
82002;SPS30;71522;50.870;3.524;2023-11-19T01:16:19;11.15;9.88;7.28;3.96;31.75;31.61;30.99;27.91;19.23;0.89
82002;SPS30;71522;50.870;3.524;2023-11-19T01:18:49;9.44;8.41;6.28;3.56;28.57;28.45;27.94;25.43;17.99;0.85
82002;SPS30;71522;50.870;3.524;2023-11-19T01:21:15;9.32;8.32;6.26;3.62;28.99;28.88;28.39;25.95;18.56;0.83
82002;SPS30;71522;50.870;3.524;2023-11-19T01:23:41;9.38;8.38;6.34;3.71;29.76;29.64;29.15;26.73;19.27;0.83
82002;SPS30;71522;50.870;3.524;2023-11-19T01:26:10;12.58;11.12;8.10;4.28;34.39;34.22;33.51;29.95;20.23;0.91
82002;SPS30;71522;50.870;3.524;2023-11-19T01:28:37;11.83;10.47;7.68;4.14;33.19;33.03;32.37;29.08;19.90;0.90
82002;SPS30;71522;50.870;3.524;2023-11-19T01:31:08;11.48;10.17;7.48;4.05;32.53;32.37;31.73;28.55;19.62;0.91
82002;SPS30;71522;50.870;3.524;2023-11-19T01:33:35;11.54;10.21;7.47;4.00;32.09;31.94;31.29;28.06;19.11;0.92
82002;SPS30;71522;50.870;3.524;2023-11-19T01:36:01;11.71;10.35;7.57;4.03;32.32;32.16;31.50;28.20;19.14;0.93
82002;SPS30;71522;50.870;3.524;2023-11-19T01:38:27;12.66;11.14;8.02;4.08;32.74;32.57;31.82;28.14;18.46;0.96
82002;SPS30;71522;50.870;3.524;2023-11-19T01:40:59;12.31;10.83;7.78;3.94;31.62;31.44;30.72;27.13;17.72;0.96
82002;SPS30;71522;50.870;3.524;2023-11-19T01:43:31;13.74;12.08;8.66;4.36;35.00;34.81;34.00;29.97;19.49;0.95
82002;SPS30;71522;50.870;3.524;2023-11-19T01:46:04;12.44;10.94;7.87;3.99;32.06;31.89;31.16;27.53;18.02;0.96
82002;SPS30;71522;50.870;3.524;2023-11-19T01:48:32;12.44;10.98;7.99;4.20;33.74;33.57;32.86;29.33;19.73;0.94
82002;SPS30;71522;50.870;3.524;2023-11-19T01:51:02;13.72;12.12;8.82;4.65;37.32;37.14;36.36;32.47;21.88;0.93
82002;SPS30;71522;50.870;3.524;2023-11-19T01:53:29;13.64;12.04;8.75;4.59;36.82;36.63;35.85;31.97;21.45;0.93
82002;SPS30;71522;50.870;3.524;2023-11-19T01:55:56;12.68;11.19;8.13;4.25;34.13;33.96;33.23;29.62;19.85;0.94
82002;SPS30;71522;50.870;3.524;2023-11-19T01:58:22;12.14;10.73;7.84;4.17;33.45;33.28;32.59;29.18;19.78;0.90
82002;SPS30;71522;50.870;3.524;2023-11-19T02:00:48;12.98;11.45;8.30;4.32;34.64;34.46;33.72;30.00;20.02;0.92
82002;SPS30;71522;50.870;3.524;2023-11-19T02:03:14;13.73;12.07;8.65;4.34;34.86;34.67;33.85;29.82;19.36;0.97
82002;SPS30;71522;50.870;3.524;2023-11-19T02:05:41;13.50;11.85;8.48;4.23;34.00;33.81;33.01;29.04;18.77;0.98
82002;SPS30;71522;50.870;3.524;2023-11-19T02:08:07;13.79;12.09;8.60;4.21;33.85;33.65;32.82;28.71;18.26;0.98
82002;SPS30;71522;50.870;3.524;2023-11-19T02:10:33;14.18;12.42;8.80;4.26;34.26;34.06;33.20;28.94;18.23;0.99
82002;SPS30;71522;50.870;3.524;2023-11-19T02:13:00;14.39;12.62;9.00;4.45;35.74;35.54;34.68;30.41;19.49;0.97
82002;SPS30;71522;50.870;3.524;2023-11-19T02:15:26;14.44;12.66;9.02;4.44;35.63;35.43;34.56;30.27;19.32;0.98
82002;SPS30;71522;50.870;3.524;2023-11-19T02:17:51;14.90;13.09;9.37;4.69;37.70;37.49;36.61;32.23;20.88;0.96
82002;SPS30;71522;50.870;3.524;2023-11-19T02:20:18;13.51;11.88;8.54;4.31;34.65;34.46;33.67;29.72;19.40;0.95
82002;SPS30;71522;50.870;3.524;2023-11-19T02:22:48;14.14;12.46;9.02;4.66;37.42;37.22;36.40;32.34;21.48;0.94
82002;SPS30;71522;50.870;3.524;2023-11-19T02:25:22;15.19;13.35;9.56;4.79;38.50;38.29;37.39;32.93;21.35;0.96
82002;SPS30;71522;50.870;3.524;2023-11-19T02:28:10;13.50;11.89;8.58;4.40;35.34;35.15;34.37;30.47;20.12;0.95
82002;SPS30;71522;50.870;3.524;2023-11-19T02:30:37;14.54;12.77;9.13;4.56;36.62;36.41;35.55;31.26;20.20;0.98
82002;SPS30;71522;50.870;3.524;2023-11-19T02:33:03;15.46;13.52;9.53;4.55;36.54;36.31;35.37;30.68;19.05;1.01
82002;SPS30;71522;50.870;3.524;2023-11-19T02:35:30;13.90;12.21;8.73;4.35;34.96;34.76;33.93;29.83;19.25;0.98
82002;SPS30;71522;50.870;3.524;2023-11-19T02:37:57;13.08;11.51;8.28;4.21;33.78;33.60;32.83;29.02;19.02;0.96
82002;SPS30;71522;50.870;3.524;2023-11-19T02:40:29;13.59;11.95;8.59;4.35;34.89;34.70;33.91;29.94;19.56;0.94
82002;SPS30;71522;50.870;3.524;2023-11-19T02:42:55;15.30;13.43;9.58;4.75;38.18;37.97;37.06;32.53;20.91;0.98
82002;SPS30;71522;50.870;3.524;2023-11-19T02:45:24;14.73;12.92;9.19;4.51;36.27;36.06;35.18;30.79;19.62;0.98
82002;SPS30;71522;50.870;3.524;2023-11-19T02:47:51;14.62;12.87;9.26;4.72;37.88;37.68;36.82;32.57;21.39;0.94
82002;SPS30;71522;50.870;3.524;2023-11-19T02:50:18;14.10;12.38;8.85;4.40;35.37;35.17;34.34;30.17;19.44;0.96
82002;SPS30;71522;50.870;3.524;2023-11-19T02:52:50;15.46;13.52;9.55;4.57;36.71;36.49;35.55;30.87;19.22;0.99
82002;SPS30;71522;50.870;3.524;2023-11-19T02:55:18;14.66;12.83;9.07;4.36;35.05;34.84;33.95;29.53;18.47;1.00
82002;SPS30;71522;50.870;3.524;2023-11-19T02:57:44;16.36;14.31;10.10;4.82;38.72;38.48;37.49;32.53;20.20;1.01
82002;SPS30;71522;50.870;3.524;2023-11-19T03:00:17;15.41;13.49;9.55;4.61;37.03;36.81;35.87;31.23;19.60;1.00
82002;SPS30;71522;50.870;3.524;2023-11-19T03:02:48;16.61;14.54;10.29;4.97;39.90;39.66;38.65;33.65;21.11;0.99
82002;SPS30;71522;50.870;3.524;2023-11-19T03:05:24;14.53;12.76;9.15;4.59;36.86;36.66;35.80;31.54;20.47;0.96
82002;SPS30;71522;50.870;3.524;2023-11-19T03:07:55;14.01;12.33;8.89;4.54;36.48;36.28;35.47;31.41;20.68;0.94
82002;SPS30;71522;50.870;3.524;2023-11-19T03:10:20;14.80;13.02;9.37;4.76;38.24;38.04;37.17;32.87;21.55;0.94
82002;SPS30;71522;50.870;3.524;2023-11-19T03:12:46;14.48;12.72;9.10;4.55;36.54;36.33;35.48;31.22;20.19;0.97
82002;SPS30;71522;50.870;3.524;2023-11-19T03:15:11;17.90;15.62;10.93;5.07;40.77;40.50;39.39;33.88;20.48;1.03
82002;SPS30;71522;50.870;3.524;2023-11-19T03:17:41;16.96;14.79;10.34;4.78;38.45;38.20;37.15;31.92;19.24;1.02
82002;SPS30;71522;50.870;3.524;2023-11-19T03:20:11;17.27;15.08;10.57;4.94;39.68;39.43;38.36;33.06;20.11;1.02
82002;SPS30;71522;50.870;3.524;2023-11-19T03:22:41;17.57;15.28;10.58;4.73;38.07;37.80;36.69;31.17;18.13;1.06
82002;SPS30;71522;50.870;3.524;2023-11-19T03:25:07;18.35;15.93;10.95;4.76;38.31;38.03;36.85;31.00;17.45;1.09
82002;SPS30;71522;50.870;3.524;2023-11-19T03:27:36;17.41;15.13;10.46;4.65;37.44;37.18;36.08;30.59;17.68;1.07
82002;SPS30;71522;50.870;3.524;2023-11-19T03:30:04;17.62;15.38;10.78;5.04;40.51;40.25;39.16;33.76;20.55;1.03
82002;SPS30;71522;50.870;3.524;2023-11-19T03:32:34;18.89;16.45;11.44;5.19;41.72;41.44;40.25;34.36;20.29;1.07
82002;SPS30;71522;50.870;3.524;2023-11-19T03:35:01;16.44;14.36;10.08;4.73;38.01;37.77;36.75;31.72;19.39;1.04
82002;SPS30;71522;50.870;3.524;2023-11-19T03:37:29;16.77;14.67;10.34;4.92;39.51;39.27;38.24;33.15;20.53;1.02
82002;SPS30;71522;50.870;3.524;2023-11-19T03:39:57;19.22;16.74;11.65;5.31;42.68;42.40;41.19;35.22;20.89;1.06
82002;SPS30;71522;50.870;3.524;2023-11-19T03:42:25;19.56;17.04;11.86;5.40;43.45;43.16;41.94;35.85;21.27;1.05
82002;SPS30;71522;50.870;3.524;2023-11-19T03:44:52;17.87;15.58;10.90;5.05;40.56;40.30;39.19;33.68;20.31;1.03
82002;SPS30;71522;50.870;3.524;2023-11-19T03:47:19;16.73;14.66;10.41;5.08;40.82;40.59;39.58;34.58;21.91;0.99
82002;SPS30;71522;50.870;3.524;2023-11-19T03:49:50;17.80;15.51;10.81;4.95;39.83;39.57;38.46;32.94;19.65;1.05
82002;SPS30;71522;50.870;3.524;2023-11-19T03:52:17;19.37;16.92;11.89;5.60;44.99;44.71;43.51;37.60;23.05;1.02
82002;SPS30;71522;50.870;3.524;2023-11-19T03:54:44;17.55;15.33;10.77;5.07;40.76;40.50;39.42;34.06;20.88;1.02
82002;SPS30;71522;50.870;3.524;2023-11-19T03:57:11;18.00;15.72;11.02;5.15;41.38;41.12;40.00;34.48;20.98;1.03
82002;SPS30;71522;50.870;3.524;2023-11-19T03:59:37;17.97;15.68;11.00;5.14;41.34;41.08;39.97;34.46;20.99;1.02
82002;SPS30;71522;50.870;3.524;2023-11-19T04:02:04;17.70;15.42;10.72;4.87;39.16;38.90;37.78;32.27;19.08;1.07
82002;SPS30;71522;50.870;3.524;2023-11-19T04:04:30;19.24;16.74;11.59;5.19;41.76;41.47;40.26;34.22;19.92;1.06
82002;SPS30;71522;50.870;3.524;2023-11-19T04:06:56;18.18;15.86;11.10;5.16;41.46;41.20;40.07;34.47;20.87;1.02
82002;SPS30;71522;50.870;3.524;2023-11-19T04:09:23;18.65;16.25;11.34;5.21;41.90;41.62;40.46;34.68;20.76;1.04
82002;SPS30;71522;50.870;3.524;2023-11-19T04:11:48;18.53;16.10;11.12;4.93;39.64;39.36;38.18;32.33;18.60;1.08
82002;SPS30;71522;50.870;3.524;2023-11-19T04:14:14;19.08;16.60;11.51;5.17;41.57;41.28;40.08;34.10;19.92;1.05
82002;SPS30;71522;50.870;3.524;2023-11-19T04:16:43;18.20;15.84;11.00;4.96;39.90;39.63;38.48;32.79;19.25;1.05
82002;SPS30;71522;50.870;3.524;2023-11-19T04:19:09;19.31;16.83;11.76;5.42;43.57;43.29;42.08;36.11;21.69;1.03
82002;SPS30;71522;50.870;3.524;2023-11-19T04:21:34;18.45;16.08;11.22;5.16;41.45;41.18;40.03;34.32;20.54;1.02
82002;SPS30;71522;50.870;3.524;2023-11-19T04:24:00;20.73;18.01;12.42;5.48;44.06;43.75;42.43;35.87;20.52;1.06
82002;SPS30;71522;50.870;3.524;2023-11-19T04:26:26;19.87;17.27;11.94;5.30;42.65;42.35;41.09;34.83;20.10;1.08
82002;SPS30;71522;50.870;3.524;2023-11-19T04:28:52;21.01;18.27;12.64;5.63;45.32;45.00;43.67;37.06;21.47;1.07
82002;SPS30;71522;50.870;3.524;2023-11-19T04:31:17;19.84;17.22;11.85;5.18;41.66;41.36;40.08;33.78;19.11;1.09
82002;SPS30;71522;50.870;3.524;2023-11-19T04:33:43;19.43;16.89;11.67;5.18;41.68;41.39;40.15;34.03;19.62;1.06
82002;SPS30;71522;50.870;3.524;2023-11-19T04:36:09;19.44;16.94;11.81;5.40;43.44;43.15;41.93;35.90;21.39;1.03
82002;SPS30;71522;50.870;3.524;2023-11-19T04:38:35;19.54;17.02;11.83;5.37;43.18;42.89;41.67;35.57;21.02;1.05
82002;SPS30;71522;50.870;3.524;2023-11-19T04:41:04;19.08;16.59;11.46;5.09;40.93;40.64;39.43;33.41;19.27;1.06
82002;SPS30;71522;50.870;3.524;2023-11-19T04:43:31;20.03;17.40;12.01;5.30;42.64;42.34;41.06;34.73;19.90;1.07
82002;SPS30;71522;50.870;3.524;2023-11-19T04:45:57;21.30;18.55;12.89;5.85;47.02;46.71;45.37;38.73;22.86;1.06
82002;SPS30;71522;50.870;3.524;2023-11-19T04:48:23;22.10;19.23;13.36;6.05;48.62;48.29;46.90;40.00;23.56;1.07
82002;SPS30;71522;50.870;3.524;2023-11-19T04:50:49;20.68;17.94;12.32;5.35;43.04;42.72;41.39;34.80;19.54;1.10
82002;SPS30;71522;50.870;3.524;2023-11-19T04:53:16;22.73;19.70;13.48;5.77;46.47;46.13;44.65;37.36;20.63;1.11
82002;SPS30;71522;50.870;3.524;2023-11-19T04:55:42;21.41;18.59;12.80;5.61;45.11;44.79;43.42;36.62;20.79;1.09
82002;SPS30;71522;50.870;3.524;2023-11-19T04:58:08;20.12;17.53;12.21;5.59;44.91;44.61;43.35;37.11;22.10;1.04
82002;SPS30;71522;50.870;3.524;2023-11-19T05:00:34;19.58;17.08;11.94;5.52;44.42;44.13;42.91;36.87;22.23;1.04
82002;SPS30;71522;50.870;3.524;2023-11-19T05:03:00;20.32;17.69;12.30;5.58;44.85;44.55;43.27;36.93;21.80;1.07
82002;SPS30;71522;50.870;3.524;2023-11-19T05:05:26;23.01;19.99;13.80;6.11;49.14;48.80;47.33;40.07;23.02;1.07
82002;SPS30;71522;50.870;3.524;2023-11-19T05:07:52;21.33;18.57;12.90;5.84;46.93;46.61;45.27;38.61;22.74;1.07
82002;SPS30;71522;50.870;3.524;2023-11-19T05:10:18;22.71;19.69;13.48;5.79;46.59;46.25;44.78;37.50;20.78;1.12
82002;SPS30;71522;50.870;3.524;2023-11-19T05:12:43;21.17;18.42;12.76;5.72;45.97;45.66;44.31;37.67;21.94;1.05
82002;SPS30;71522;50.870;3.524;2023-11-19T05:15:10;21.02;18.27;12.62;5.60;45.07;44.75;43.41;36.79;21.20;1.09
82002;SPS30;71522;50.870;3.524;2023-11-19T05:17:37;22.77;19.77;13.62;5.97;48.06;47.72;46.26;39.04;22.20;1.08
82002;SPS30;71522;50.870;3.524;2023-11-19T05:20:03;18.48;16.09;11.19;5.09;40.91;40.63;39.47;33.72;19.95;1.04
82002;SPS30;71522;50.870;3.524;2023-11-19T05:22:29;20.56;17.87;12.35;5.49;44.17;43.86;42.56;36.08;20.84;1.07
82002;SPS30;71522;50.870;3.524;2023-11-19T05:24:54;20.50;17.83;12.34;5.51;44.30;43.99;42.69;36.25;21.03;1.08
82002;SPS30;71522;50.870;3.524;2023-11-19T05:27:21;20.63;17.98;12.55;5.76;46.31;46.01;44.72;38.33;22.92;1.05
82002;SPS30;71522;50.870;3.524;2023-11-19T05:29:48;20.45;17.82;12.41;5.66;45.50;45.20;43.92;37.56;22.31;1.06
82002;SPS30;71522;50.870;3.524;2023-11-19T05:32:14;21.42;18.61;12.84;5.66;45.56;45.24;43.88;37.10;21.24;1.08
82002;SPS30;71522;50.870;3.524;2023-11-19T05:34:40;22.85;19.87;13.76;6.15;49.50;49.16;47.71;40.53;23.57;1.07
82002;SPS30;71522;50.870;3.524;2023-11-19T05:37:06;20.39;17.71;12.21;5.37;43.17;42.86;41.56;35.10;20.01;1.08
82002;SPS30;71522;50.870;3.524;2023-11-19T05:39:31;21.52;18.73;13.01;5.89;47.36;47.04;45.69;38.97;22.95;1.07
82002;SPS30;71522;50.870;3.524;2023-11-19T05:41:57;23.10;20.05;13.78;6.00;48.29;47.94;46.46;39.11;22.05;1.09
82002;SPS30;71522;50.870;3.524;2023-11-19T05:44:22;20.96;18.21;12.55;5.53;44.46;44.15;42.81;36.17;20.66;1.10
82002;SPS30;71522;50.870;3.524;2023-11-19T05:46:48;22.07;19.19;13.28;5.93;47.70;47.37;45.97;39.04;22.66;1.07
82002;SPS30;71522;50.870;3.524;2023-11-19T05:49:14;22.02;19.17;13.32;6.03;48.49;48.16;46.77;39.90;23.51;1.06
82002;SPS30;71522;50.870;3.524;2023-11-19T05:51:39;22.53;19.60;13.58;6.09;48.95;48.62;47.19;40.12;23.38;1.06
82002;SPS30;71522;50.870;3.524;2023-11-19T05:54:09;23.39;20.32;14.02;6.19;49.84;49.49;48.00;40.60;23.28;1.08
82002;SPS30;71522;50.870;3.524;2023-11-19T05:56:35;22.03;19.12;13.15;5.74;46.19;45.86;44.45;37.44;21.17;1.10
82002;SPS30;71522;50.870;3.524;2023-11-19T05:59:01;22.02;19.13;13.21;5.84;46.99;46.66;45.26;38.30;21.99;1.09
82002;SPS30;71522;50.870;3.524;2023-11-19T06:01:32;22.45;19.51;13.48;5.98;48.10;47.76;46.33;39.25;22.61;1.08
82002;SPS30;71522;50.870;3.524;2023-11-19T06:04:01;21.36;18.59;12.90;5.82;46.78;46.46;45.11;38.43;22.54;1.06
82002;SPS30;71522;50.870;3.524;2023-11-19T06:06:28;20.97;18.23;12.61;5.62;45.22;44.91;43.57;36.98;21.42;1.07
82002;SPS30;71522;50.870;3.524;2023-11-19T06:08:54;22.24;19.33;13.36;5.94;47.78;47.45;46.04;39.03;22.54;1.09
82002;SPS30;71522;50.870;3.524;2023-11-19T06:11:20;23.12;20.03;13.70;5.85;47.12;46.77;45.27;37.85;20.84;1.12
82002;SPS30;71522;50.870;3.524;2023-11-19T06:13:46;23.64;20.50;14.06;6.06;48.77;48.41;46.88;39.32;21.90;1.09
82002;SPS30;71522;50.870;3.524;2023-11-19T06:16:13;20.44;17.82;12.44;5.73;46.05;45.75;44.48;38.15;22.88;1.02
82002;SPS30;71522;50.870;3.524;2023-11-19T06:18:39;20.64;18.00;12.58;5.82;46.79;46.48;45.20;38.83;23.39;1.04
82002;SPS30;71522;50.870;3.524;2023-11-19T06:21:06;21.23;18.46;12.78;5.72;46.00;45.69;44.34;37.67;21.91;1.07
82002;SPS30;71522;50.870;3.524;2023-11-19T06:23:32;22.43;19.49;13.45;5.94;47.77;47.44;46.01;38.92;22.30;1.08
82002;SPS30;71522;50.870;3.524;2023-11-19T06:25:58;24.77;21.43;14.58;6.10;49.10;48.72;47.09;39.06;20.91;1.15
82002;SPS30;71522;50.870;3.524;2023-11-19T06:28:24;23.63;20.47;13.98;5.93;47.76;47.40;45.86;38.25;20.88;1.12
82002;SPS30;71522;50.870;3.524;2023-11-19T06:30:50;22.32;19.36;13.28;5.73;46.13;45.79;44.35;37.22;20.76;1.11
82002;SPS30;71522;50.870;3.524;2023-11-19T06:33:15;22.40;19.44;13.35;5.79;46.58;46.24;44.79;37.65;21.12;1.10
82002;SPS30;71522;50.870;3.524;2023-11-19T06:35:41;23.21;20.11;13.74;5.84;47.00;46.64;45.14;37.66;20.60;1.11
82002;SPS30;71522;50.870;3.524;2023-11-19T06:38:07;23.65;20.50;14.03;6.01;48.34;47.98;46.44;38.86;21.45;1.10
82002;SPS30;71522;50.870;3.524;2023-11-19T06:40:34;24.84;21.51;14.69;6.22;50.10;49.72;48.10;40.09;21.84;1.10
82002;SPS30;71522;50.870;3.524;2023-11-19T06:43:00;22.68;19.72;13.64;6.08;48.93;48.59;47.15;40.01;23.19;1.07
82002;SPS30;71522;50.870;3.524;2023-11-19T06:45:29;20.96;18.25;12.68;5.74;46.20;45.89;44.57;38.03;22.43;1.05
82002;SPS30;71522;50.870;3.524;2023-11-19T06:47:55;22.21;19.27;13.23;5.73;46.09;45.75;44.32;37.24;20.85;1.09
82002;SPS30;71522;50.870;3.524;2023-11-19T06:50:20;22.87;19.87;13.72;6.07;48.79;48.45;46.99;39.77;22.82;1.09
82002;SPS30;71522;50.870;3.524;2023-11-19T06:52:46;21.80;18.96;13.11;5.84;46.94;46.61;45.23;38.36;22.19;1.08
82002;SPS30;71522;50.870;3.524;2023-11-19T06:55:12;21.09;18.37;12.80;5.86;47.08;46.77;45.45;38.90;23.17;1.05
82002;SPS30;71522;50.870;3.524;2023-11-19T06:57:38;22.05;19.19;13.32;6.00;48.25;47.92;46.53;39.63;23.23;1.06
82002;SPS30;71522;50.870;3.524;2023-11-19T07:00:04;23.42;20.34;14.03;6.18;49.69;49.33;47.84;40.43;23.09;1.08
82002;SPS30;71522;50.870;3.524;2023-11-19T07:02:31;21.70;18.82;12.89;5.54;44.56;44.23;42.83;35.87;19.89;1.10
82002;SPS30;71522;50.870;3.524;2023-11-19T07:04:57;23.19;20.11;13.79;5.94;47.82;47.47;45.97;38.56;21.46;1.10
82002;SPS30;71522;50.870;3.524;2023-11-19T07:07:23;21.73;18.90;13.09;5.85;47.08;46.76;45.38;38.56;22.42;1.06
82002;SPS30;71522;50.870;3.524;2023-11-19T07:09:50;21.70;18.87;13.07;5.84;47.01;46.68;45.31;38.49;22.38;1.06
82002;SPS30;71522;50.870;3.524;2023-11-19T07:12:16;24.72;21.48;14.81;6.53;52.56;52.19;50.61;42.79;24.49;1.08
82002;SPS30;71522;50.870;3.524;2023-11-19T07:14:41;21.74;18.96;13.25;6.12;49.23;48.91;47.56;40.85;24.60;1.03
82002;SPS30;71522;50.870;3.524;2023-11-19T07:17:07;22.34;19.48;13.62;6.31;50.71;50.38;48.99;42.10;25.39;1.03
82002;SPS30;71522;50.870;3.524;2023-11-19T07:19:34;23.96;20.90;14.62;6.78;54.53;54.18;52.69;45.31;27.38;1.04
82002;SPS30;71522;50.870;3.524;2023-11-19T07:22:01;22.89;19.98;14.02;6.57;52.80;52.46;51.05;44.04;26.87;1.01
82002;SPS30;71522;50.870;3.524;2023-11-19T07:24:27;22.99;20.03;13.95;6.36;51.17;50.83;49.39;42.25;25.10;1.05
82002;SPS30;71522;50.870;3.524;2023-11-19T07:26:53;24.55;21.33;14.71;6.49;52.22;51.85;50.28;42.51;24.34;1.07
82002;SPS30;71522;50.870;3.524;2023-11-19T07:29:19;22.93;19.97;13.89;6.31;50.77;50.43;48.99;41.85;24.77;1.05
82002;SPS30;71522;50.870;3.524;2023-11-19T07:31:48;24.63;21.39;14.75;6.49;52.25;51.87;50.30;42.50;24.27;1.09
82002;SPS30;71522;50.870;3.524;2023-11-19T07:34:14;22.02;19.20;13.40;6.17;49.61;49.29;47.91;41.10;24.65;1.04
82002;SPS30;71522;50.870;3.524;2023-11-19T07:36:40;22.80;19.90;13.94;6.49;52.19;51.85;50.44;43.43;26.36;1.03
82002;SPS30;71522;50.870;3.524;2023-11-19T07:39:06;21.21;18.47;12.85;5.85;47.01;46.70;45.37;38.76;22.96;1.05
82002;SPS30;71522;50.870;3.524;2023-11-19T07:41:34;22.86;19.86;13.70;6.04;48.57;48.22;46.76;39.53;22.61;1.08
82002;SPS30;71522;50.870;3.524;2023-11-19T07:44:00;21.06;18.32;12.69;5.69;45.80;45.49;44.16;37.55;21.91;1.07
82002;SPS30;71522;50.870;3.524;2023-11-19T07:46:26;23.16;20.18;14.06;6.43;51.68;51.34;49.89;42.70;25.42;1.05
82002;SPS30;71522;50.870;3.524;2023-11-19T07:48:52;23.58;20.55;14.31;6.53;52.52;52.17;50.70;43.37;25.78;1.04
82002;SPS30;71522;50.870;3.524;2023-11-19T07:51:18;21.89;19.14;13.51;6.45;51.81;51.50;50.16;43.53;27.04;1.01
82002;SPS30;71522;50.870;3.524;2023-11-19T07:53:44;20.80;18.17;12.77;6.02;48.42;48.12;46.84;40.49;24.87;1.02
82002;SPS30;71522;50.870;3.524;2023-11-19T07:56:09;22.47;19.53;13.50;6.00;48.25;47.91;46.48;39.40;22.74;1.08
82002;SPS30;71522;50.870;3.524;2023-11-19T07:58:35;23.82;20.68;14.24;6.23;50.16;49.80;48.27;40.71;23.09;1.09
82002;SPS30;71522;50.870;3.524;2023-11-19T08:01:04;21.74;18.90;13.07;5.81;46.76;46.43;45.05;38.21;22.08;1.08
82002;SPS30;71522;50.870;3.524;2023-11-19T08:03:30;21.32;18.58;12.96;5.95;47.82;47.51;46.18;39.57;23.65;1.04
82002;SPS30;71522;50.870;3.524;2023-11-19T08:05:56;21.19;18.50;13.00;6.11;49.11;48.80;47.49;41.02;25.11;1.00
82002;SPS30;71522;50.870;3.524;2023-11-19T08:08:22;19.54;17.04;11.92;5.52;44.41;44.12;42.91;36.89;22.27;1.02
82002;SPS30;71522;50.870;3.524;2023-11-19T08:10:48;20.98;18.26;12.66;5.69;45.78;45.47;44.14;37.57;21.97;1.03
82002;SPS30;71522;50.870;3.524;2023-11-19T08:13:14;20.38;17.83;12.61;6.06;48.73;48.44;47.20;41.05;25.68;1.00
82002;SPS30;71522;50.870;3.524;2023-11-19T08:15:40;20.23;17.70;12.50;5.99;48.15;47.85;46.62;40.51;25.26;1.01
82002;SPS30;71522;50.870;3.524;2023-11-19T08:18:06;17.38;15.24;10.84;5.31;42.67;42.42;41.38;36.20;23.03;0.99
82002;SPS30;71522;50.870;3.524;2023-11-19T08:20:32;18.41;16.10;11.37;5.44;43.75;43.49;42.36;36.80;22.92;1.02
82002;SPS30;71522;50.870;3.524;2023-11-19T08:22:58;15.60;13.67;9.72;4.75;38.16;37.93;36.99;32.34;20.52;0.99
82002;SPS30;71522;50.870;3.524;2023-11-19T08:25:24;17.23;15.05;10.57;4.97;39.99;39.74;38.67;33.41;20.48;1.02
82002;SPS30;71522;50.870;3.524;2023-11-19T08:27:50;17.57;15.34;10.78;5.08;40.81;40.56;39.48;34.11;20.92;1.03
82002;SPS30;71522;50.870;3.524;2023-11-19T08:30:15;20.09;17.49;12.16;5.52;44.42;44.12;42.86;36.60;21.64;1.06
82002;SPS30;71522;50.870;3.524;2023-11-19T08:32:41;19.54;17.07;12.02;5.70;45.79;45.51;44.31;38.37;23.68;1.01
82002;SPS30;71522;50.870;3.524;2023-11-19T08:35:07;21.22;18.55;13.06;6.19;49.71;49.40;48.10;41.64;25.69;1.02
82002;SPS30;71522;50.870;3.524;2023-11-19T08:37:33;18.97;16.58;11.65;5.49;44.16;43.88;42.72;36.93;22.68;1.02
82002;SPS30;71522;50.870;3.524;2023-11-19T08:40:02;19.45;16.97;11.89;5.54;44.54;44.26;43.05;37.08;22.51;1.03
82002;SPS30;71522;50.870;3.524;2023-11-19T08:42:29;18.94;16.51;11.52;5.29;42.55;42.27;41.08;35.22;21.07;1.04
82002;SPS30;71522;50.870;3.524;2023-11-19T08:44:55;17.88;15.61;10.95;5.13;41.24;40.98;39.88;34.40;21.00;1.01
82002;SPS30;71522;50.870;3.524;2023-11-19T08:47:21;17.06;14.93;10.54;5.05;40.60;40.36;39.32;34.16;21.30;1.01
82002;SPS30;71522;50.870;3.524;2023-11-19T08:49:48;19.40;16.89;11.73;5.31;42.73;42.45;41.23;35.17;20.73;1.05
82002;SPS30;71522;50.870;3.524;2023-11-19T08:52:17;17.96;15.67;10.96;5.07;40.79;40.52;39.40;33.87;20.43;1.04
82002;SPS30;71522;50.870;3.524;2023-11-19T08:54:43;17.05;14.89;10.45;4.91;39.45;39.20;38.15;32.93;20.14;1.02
82002;SPS30;71522;50.870;3.524;2023-11-19T08:57:08;18.43;16.12;11.39;5.46;43.86;43.59;42.47;36.90;23.01;1.01